sensor_id;sensor_type;location;lat;lon;timestamp;temperature;humidity
74869;DHT22;63419;42.262;12.210;2022-12-07T00:01:43;9.80;99.90
74869;DHT22;63419;42.262;12.210;2022-12-07T00:04:15;9.80;99.90
74869;DHT22;63419;42.262;12.210;2022-12-07T00:06:46;10.00;99.90
74869;DHT22;63419;42.262;12.210;2022-12-07T00:09:18;10.00;99.90
74869;DHT22;63419;42.262;12.210;2022-12-07T00:11:49;10.00;99.90
74869;DHT22;63419;42.262;12.210;2022-12-07T00:14:18;10.00;99.90
74869;DHT22;63419;42.262;12.210;2022-12-07T00:16:51;9.80;99.90
74869;DHT22;63419;42.262;12.210;2022-12-07T00:19:19;9.80;99.90
74869;DHT22;63419;42.262;12.210;2022-12-07T00:21:46;9.70;99.90
74869;DHT22;63419;42.262;12.210;2022-12-07T00:24:13;9.70;99.90
74869;DHT22;63419;42.262;12.210;2022-12-07T00:26:41;9.70;99.90
74869;DHT22;63419;42.262;12.210;2022-12-07T00:29:17;9.70;99.90
74869;DHT22;63419;42.262;12.210;2022-12-07T00:31:46;9.60;99.90
74869;DHT22;63419;42.262;12.210;2022-12-07T00:34:16;9.60;99.90
74869;DHT22;63419;42.262;12.210;2022-12-07T00:36:46;9.60;99.90
74869;DHT22;63419;42.262;12.210;2022-12-07T00:39:13;9.60;99.90
74869;DHT22;63419;42.262;12.210;2022-12-07T00:41:41;9.50;99.90
74869;DHT22;63419;42.262;12.210;2022-12-07T00:44:08;9.40;99.90
74869;DHT22;63419;42.262;12.210;2022-12-07T00:46:35;9.30;99.90
74869;DHT22;63419;42.262;12.210;2022-12-07T00:49:03;9.20;99.90
74869;DHT22;63419;42.262;12.210;2022-12-07T00:51:30;9.20;99.90
74869;DHT22;63419;42.262;12.210;2022-12-07T00:53:58;9.20;99.90
74869;DHT22;63419;42.262;12.210;2022-12-07T00:56:27;9.20;99.90
74869;DHT22;63419;42.262;12.210;2022-12-07T00:59:00;9.20;99.90
74869;DHT22;63419;42.262;12.210;2022-12-07T01:01:32;9.20;99.90
74869;DHT22;63419;42.262;12.210;2022-12-07T01:04:02;9.20;99.90
74869;DHT22;63419;42.262;12.210;2022-12-07T01:06:30;9.10;99.90
74869;DHT22;63419;42.262;12.210;2022-12-07T01:08:58;9.20;99.90
74869;DHT22;63419;42.262;12.210;2022-12-07T01:11:28;9.30;99.90
74869;DHT22;63419;42.262;12.210;2022-12-07T01:13:58;9.30;99.90
74869;DHT22;63419;42.262;12.210;2022-12-07T01:16:29;9.30;99.90
74869;DHT22;63419;42.262;12.210;2022-12-07T01:18:59;9.30;99.90
74869;DHT22;63419;42.262;12.210;2022-12-07T01:21:31;9.40;99.90
74869;DHT22;63419;42.262;12.210;2022-12-07T01:24:05;9.30;99.90
74869;DHT22;63419;42.262;12.210;2022-12-07T01:26:34;9.30;99.90
74869;DHT22;63419;42.262;12.210;2022-12-07T01:29:01;9.30;99.90
74869;DHT22;63419;42.262;12.210;2022-12-07T01:31:29;9.30;99.90
74869;DHT22;63419;42.262;12.210;2022-12-07T01:33:58;9.30;99.90
74869;DHT22;63419;42.262;12.210;2022-12-07T01:36:32;9.40;99.90
74869;DHT22;63419;42.262;12.210;2022-12-07T01:39:04;9.40;99.90
74869;DHT22;63419;42.262;12.210;2022-12-07T01:41:35;9.40;99.90
74869;DHT22;63419;42.262;12.210;2022-12-07T01:46:53;9.40;99.90
74869;DHT22;63419;42.262;12.210;2022-12-07T01:49:27;9.40;99.90
74869;DHT22;63419;42.262;12.210;2022-12-07T01:52:24;9.30;99.90
74869;DHT22;63419;42.262;12.210;2022-12-07T01:54:58;9.30;99.90
74869;DHT22;63419;42.262;12.210;2022-12-07T01:57:31;9.30;99.90
74869;DHT22;63419;42.262;12.210;2022-12-07T02:00:01;9.30;99.90
74869;DHT22;63419;42.262;12.210;2022-12-07T02:02:35;9.30;99.90
74869;DHT22;63419;42.262;12.210;2022-12-07T02:05:06;9.20;99.90
74869;DHT22;63419;42.262;12.210;2022-12-07T02:07:36;9.20;99.90
74869;DHT22;63419;42.262;12.210;2022-12-07T02:12:49;9.20;99.90
74869;DHT22;63419;42.262;12.210;2022-12-07T02:18:47;9.20;99.90
74869;DHT22;63419;42.262;12.210;2022-12-07T02:30:08;9.20;99.90
74869;DHT22;63419;42.262;12.210;2022-12-07T02:36:25;9.20;99.90
74869;DHT22;63419;42.262;12.210;2022-12-07T02:41:29;9.40;99.90
74869;DHT22;63419;42.262;12.210;2022-12-07T02:44:05;9.40;99.90
74869;DHT22;63419;42.262;12.210;2022-12-07T02:46:39;9.50;99.90
74869;DHT22;63419;42.262;12.210;2022-12-07T02:49:11;9.50;99.90
74869;DHT22;63419;42.262;12.210;2022-12-07T02:51:41;9.60;99.90
74869;DHT22;63419;42.262;12.210;2022-12-07T02:54:16;9.60;99.90
74869;DHT22;63419;42.262;12.210;2022-12-07T03:08:39;9.70;99.90
74869;DHT22;63419;42.262;12.210;2022-12-07T03:14:22;9.70;99.90
74869;DHT22;63419;42.262;12.210;2022-12-07T03:17:18;9.60;99.90
74869;DHT22;63419;42.262;12.210;2022-12-07T03:19:54;9.50;99.90
74869;DHT22;63419;42.262;12.210;2022-12-07T03:22:27;9.50;99.90
74869;DHT22;63419;42.262;12.210;2022-12-07T03:25:02;9.50;99.90
74869;DHT22;63419;42.262;12.210;2022-12-07T03:27:48;9.40;99.90
74869;DHT22;63419;42.262;12.210;2022-12-07T03:30:37;9.40;99.90
74869;DHT22;63419;42.262;12.210;2022-12-07T03:33:39;9.50;99.90
74869;DHT22;63419;42.262;12.210;2022-12-07T03:36:27;9.50;99.90
74869;DHT22;63419;42.262;12.210;2022-12-07T03:41:54;9.40;99.90
74869;DHT22;63419;42.262;12.210;2022-12-07T03:44:24;9.40;99.90
74869;DHT22;63419;42.262;12.210;2022-12-07T03:47:14;9.40;99.90
74869;DHT22;63419;42.262;12.210;2022-12-07T03:52:39;9.50;99.90
74869;DHT22;63419;42.262;12.210;2022-12-07T03:55:18;9.50;99.90
74869;DHT22;63419;42.262;12.210;2022-12-07T03:57:54;9.40;99.90
74869;DHT22;63419;42.262;12.210;2022-12-07T04:00:26;9.30;99.90
74869;DHT22;63419;42.262;12.210;2022-12-07T04:02:54;9.20;99.90
74869;DHT22;63419;42.262;12.210;2022-12-07T04:05:22;9.20;99.90
74869;DHT22;63419;42.262;12.210;2022-12-07T04:07:50;9.20;99.90
74869;DHT22;63419;42.262;12.210;2022-12-07T04:10:18;9.30;99.90
74869;DHT22;63419;42.262;12.210;2022-12-07T04:12:45;9.30;99.90
74869;DHT22;63419;42.262;12.210;2022-12-07T04:15:13;9.40;99.90
74869;DHT22;63419;42.262;12.210;2022-12-07T04:17:40;9.30;99.90
74869;DHT22;63419;42.262;12.210;2022-12-07T04:20:08;9.20;99.90
74869;DHT22;63419;42.262;12.210;2022-12-07T04:22:35;9.20;99.90
74869;DHT22;63419;42.262;12.210;2022-12-07T04:25:03;9.10;99.90
74869;DHT22;63419;42.262;12.210;2022-12-07T04:27:31;9.10;99.90
74869;DHT22;63419;42.262;12.210;2022-12-07T04:29:58;9.10;99.90
74869;DHT22;63419;42.262;12.210;2022-12-07T04:32:26;9.00;99.90
74869;DHT22;63419;42.262;12.210;2022-12-07T04:34:53;9.00;99.90
74869;DHT22;63419;42.262;12.210;2022-12-07T04:37:22;9.00;99.90
74869;DHT22;63419;42.262;12.210;2022-12-07T04:39:50;9.00;99.90
74869;DHT22;63419;42.262;12.210;2022-12-07T04:42:17;8.90;99.90
74869;DHT22;63419;42.262;12.210;2022-12-07T04:44:44;9.00;99.90
74869;DHT22;63419;42.262;12.210;2022-12-07T04:47:12;9.00;99.90
74869;DHT22;63419;42.262;12.210;2022-12-07T04:49:39;9.00;99.90
74869;DHT22;63419;42.262;12.210;2022-12-07T04:52:06;9.00;99.90
74869;DHT22;63419;42.262;12.210;2022-12-07T04:54:34;9.10;99.90
74869;DHT22;63419;42.262;12.210;2022-12-07T04:57:01;9.00;99.90
74869;DHT22;63419;42.262;12.210;2022-12-07T04:59:28;9.00;99.90
74869;DHT22;63419;42.262;12.210;2022-12-07T05:01:55;9.00;99.90
74869;DHT22;63419;42.262;12.210;2022-12-07T05:04:23;9.00;99.90
74869;DHT22;63419;42.262;12.210;2022-12-07T05:06:50;9.00;99.90
74869;DHT22;63419;42.262;12.210;2022-12-07T05:09:17;8.90;99.90
74869;DHT22;63419;42.262;12.210;2022-12-07T05:11:44;8.90;99.90
74869;DHT22;63419;42.262;12.210;2022-12-07T05:14:19;8.80;99.90
74869;DHT22;63419;42.262;12.210;2022-12-07T05:16:50;8.60;99.90
74869;DHT22;63419;42.262;12.210;2022-12-07T05:19:18;8.30;99.90
74869;DHT22;63419;42.262;12.210;2022-12-07T05:21:46;8.30;99.90
74869;DHT22;63419;42.262;12.210;2022-12-07T05:24:15;8.30;99.90
74869;DHT22;63419;42.262;12.210;2022-12-07T05:26:44;8.20;99.90
74869;DHT22;63419;42.262;12.210;2022-12-07T05:29:14;8.20;99.90
74869;DHT22;63419;42.262;12.210;2022-12-07T05:31:43;8.00;99.90
74869;DHT22;63419;42.262;12.210;2022-12-07T05:34:11;7.60;99.90
74869;DHT22;63419;42.262;12.210;2022-12-07T05:36:39;7.60;99.90
74869;DHT22;63419;42.262;12.210;2022-12-07T05:39:07;7.60;99.90
74869;DHT22;63419;42.262;12.210;2022-12-07T05:41:34;7.60;99.90
74869;DHT22;63419;42.262;12.210;2022-12-07T05:44:20;7.70;99.90
74869;DHT22;63419;42.262;12.210;2022-12-07T05:46:48;7.80;99.90
74869;DHT22;63419;42.262;12.210;2022-12-07T05:49:15;8.00;99.90
74869;DHT22;63419;42.262;12.210;2022-12-07T05:51:42;8.00;99.90
74869;DHT22;63419;42.262;12.210;2022-12-07T05:54:10;8.10;99.90
74869;DHT22;63419;42.262;12.210;2022-12-07T05:56:37;8.20;99.90
74869;DHT22;63419;42.262;12.210;2022-12-07T05:59:04;8.10;99.90
74869;DHT22;63419;42.262;12.210;2022-12-07T06:01:59;8.00;99.90
74869;DHT22;63419;42.262;12.210;2022-12-07T06:04:32;8.00;99.90
74869;DHT22;63419;42.262;12.210;2022-12-07T06:07:03;8.00;99.90
74869;DHT22;63419;42.262;12.210;2022-12-07T06:09:32;8.00;99.90
74869;DHT22;63419;42.262;12.210;2022-12-07T06:12:01;8.00;99.90
74869;DHT22;63419;42.262;12.210;2022-12-07T06:14:47;8.10;99.90
74869;DHT22;63419;42.262;12.210;2022-12-07T06:17:15;8.10;99.90
74869;DHT22;63419;42.262;12.210;2022-12-07T06:19:43;8.20;99.90
74869;DHT22;63419;42.262;12.210;2022-12-07T06:22:10;8.20;99.90
74869;DHT22;63419;42.262;12.210;2022-12-07T06:24:39;8.30;99.90
74869;DHT22;63419;42.262;12.210;2022-12-07T06:27:06;8.40;99.90
74869;DHT22;63419;42.262;12.210;2022-12-07T06:29:34;8.40;99.90
74869;DHT22;63419;42.262;12.210;2022-12-07T06:32:01;8.30;99.90
74869;DHT22;63419;42.262;12.210;2022-12-07T06:34:29;8.30;99.90
74869;DHT22;63419;42.262;12.210;2022-12-07T06:36:58;8.30;99.90
74869;DHT22;63419;42.262;12.210;2022-12-07T06:39:27;8.30;99.90
74869;DHT22;63419;42.262;12.210;2022-12-07T06:41:56;8.40;99.90
74869;DHT22;63419;42.262;12.210;2022-12-07T06:44:24;8.50;99.90
74869;DHT22;63419;42.262;12.210;2022-12-07T06:46:52;8.70;99.90
74869;DHT22;63419;42.262;12.210;2022-12-07T06:49:38;8.70;99.90
74869;DHT22;63419;42.262;12.210;2022-12-07T06:52:05;8.70;99.90
74869;DHT22;63419;42.262;12.210;2022-12-07T06:54:32;8.90;99.90
74869;DHT22;63419;42.262;12.210;2022-12-07T06:57:00;8.90;99.90
74869;DHT22;63419;42.262;12.210;2022-12-07T06:59:27;9.00;99.90
74869;DHT22;63419;42.262;12.210;2022-12-07T07:01:56;9.20;99.90
74869;DHT22;63419;42.262;12.210;2022-12-07T07:04:24;9.30;99.90
74869;DHT22;63419;42.262;12.210;2022-12-07T07:06:51;9.50;99.90
74869;DHT22;63419;42.262;12.210;2022-12-07T07:09:25;9.70;99.90
74869;DHT22;63419;42.262;12.210;2022-12-07T07:11:53;9.90;99.90
74869;DHT22;63419;42.262;12.210;2022-12-07T07:14:20;10.20;99.90
74869;DHT22;63419;42.262;12.210;2022-12-07T07:16:48;10.20;99.90
74869;DHT22;63419;42.262;12.210;2022-12-07T07:19:15;10.40;99.90
74869;DHT22;63419;42.262;12.210;2022-12-07T07:21:42;10.60;99.90
74869;DHT22;63419;42.262;12.210;2022-12-07T07:24:10;10.30;99.90
74869;DHT22;63419;42.262;12.210;2022-12-07T07:26:40;10.00;99.90
74869;DHT22;63419;42.262;12.210;2022-12-07T07:29:11;9.70;99.90
74869;DHT22;63419;42.262;12.210;2022-12-07T07:31:38;9.80;99.90
74869;DHT22;63419;42.262;12.210;2022-12-07T07:34:06;10.20;99.90
74869;DHT22;63419;42.262;12.210;2022-12-07T07:36:33;10.40;99.90
74869;DHT22;63419;42.262;12.210;2022-12-07T07:39:00;10.60;99.90
74869;DHT22;63419;42.262;12.210;2022-12-07T07:41:28;10.70;99.90
74869;DHT22;63419;42.262;12.210;2022-12-07T07:43:55;11.00;99.90
74869;DHT22;63419;42.262;12.210;2022-12-07T07:46:22;11.10;99.90
74869;DHT22;63419;42.262;12.210;2022-12-07T07:48:50;10.90;99.90
74869;DHT22;63419;42.262;12.210;2022-12-07T07:51:20;10.90;99.90
74869;DHT22;63419;42.262;12.210;2022-12-07T07:53:47;11.10;99.90
74869;DHT22;63419;42.262;12.210;2022-12-07T07:56:15;11.20;99.90
74869;DHT22;63419;42.262;12.210;2022-12-07T07:58:42;11.40;99.90
74869;DHT22;63419;42.262;12.210;2022-12-07T08:01:10;11.60;99.90
74869;DHT22;63419;42.262;12.210;2022-12-07T08:03:37;11.90;99.90
74869;DHT22;63419;42.262;12.210;2022-12-07T08:06:05;12.10;99.90
74869;DHT22;63419;42.262;12.210;2022-12-07T08:08:32;11.70;99.90
74869;DHT22;63419;42.262;12.210;2022-12-07T08:11:00;11.30;99.90
74869;DHT22;63419;42.262;12.210;2022-12-07T08:13:28;11.40;99.90
74869;DHT22;63419;42.262;12.210;2022-12-07T08:15:57;12.00;99.90
74869;DHT22;63419;42.262;12.210;2022-12-07T08:18:25;12.50;99.90
74869;DHT22;63419;42.262;12.210;2022-12-07T08:20:59;12.90;99.90
74869;DHT22;63419;42.262;12.210;2022-12-07T08:23:27;13.40;99.90
74869;DHT22;63419;42.262;12.210;2022-12-07T08:26:12;13.70;99.90
74869;DHT22;63419;42.262;12.210;2022-12-07T08:28:41;14.20;99.90
74869;DHT22;63419;42.262;12.210;2022-12-07T08:31:17;14.50;99.90
74869;DHT22;63419;42.262;12.210;2022-12-07T08:33:46;14.80;99.90
74869;DHT22;63419;42.262;12.210;2022-12-07T08:36:15;13.90;99.90
74869;DHT22;63419;42.262;12.210;2022-12-07T08:38:43;13.30;99.90
74869;DHT22;63419;42.262;12.210;2022-12-07T08:41:30;13.30;99.90
74869;DHT22;63419;42.262;12.210;2022-12-07T08:43:58;13.60;99.90
74869;DHT22;63419;42.262;12.210;2022-12-07T08:46:31;13.60;99.90
74869;DHT22;63419;42.262;12.210;2022-12-07T08:49:24;13.70;99.90
74869;DHT22;63419;42.262;12.210;2022-12-07T08:51:59;13.80;99.90
74869;DHT22;63419;42.262;12.210;2022-12-07T08:54:28;13.90;99.90
74869;DHT22;63419;42.262;12.210;2022-12-07T08:56:56;14.40;99.90
74869;DHT22;63419;42.262;12.210;2022-12-07T08:59:26;14.30;99.90
74869;DHT22;63419;42.262;12.210;2022-12-07T09:01:54;14.50;99.90
74869;DHT22;63419;42.262;12.210;2022-12-07T09:04:22;14.80;99.90
74869;DHT22;63419;42.262;12.210;2022-12-07T09:06:49;15.00;99.90
74869;DHT22;63419;42.262;12.210;2022-12-07T09:09:16;15.30;99.90
74869;DHT22;63419;42.262;12.210;2022-12-07T09:11:44;15.30;99.90
74869;DHT22;63419;42.262;12.210;2022-12-07T09:14:12;15.50;99.90
74869;DHT22;63419;42.262;12.210;2022-12-07T09:16:39;15.50;99.90
74869;DHT22;63419;42.262;12.210;2022-12-07T09:19:08;15.60;99.90
74869;DHT22;63419;42.262;12.210;2022-12-07T09:21:35;15.30;99.90
74869;DHT22;63419;42.262;12.210;2022-12-07T09:24:02;15.20;99.90
74869;DHT22;63419;42.262;12.210;2022-12-07T09:26:29;15.40;99.90
74869;DHT22;63419;42.262;12.210;2022-12-07T09:28:57;15.60;99.90
74869;DHT22;63419;42.262;12.210;2022-12-07T09:34:48;16.40;99.90
74869;DHT22;63419;42.262;12.210;2022-12-07T09:37:15;16.60;99.90
74869;DHT22;63419;42.262;12.210;2022-12-07T09:39:42;16.50;99.90
74869;DHT22;63419;42.262;12.210;2022-12-07T09:42:36;15.40;99.90
74869;DHT22;63419;42.262;12.210;2022-12-07T09:45:23;14.30;99.90
74869;DHT22;63419;42.262;12.210;2022-12-07T09:47:53;14.70;99.90
74869;DHT22;63419;42.262;12.210;2022-12-07T09:50:24;14.40;99.90
74869;DHT22;63419;42.262;12.210;2022-12-07T09:53:04;14.20;99.90
74869;DHT22;63419;42.262;12.210;2022-12-07T09:55:38;14.70;99.90
74869;DHT22;63419;42.262;12.210;2022-12-07T09:58:16;14.20;99.90
74869;DHT22;63419;42.262;12.210;2022-12-07T10:00:47;14.60;99.90
74869;DHT22;63419;42.262;12.210;2022-12-07T10:03:16;14.80;99.90
74869;DHT22;63419;42.262;12.210;2022-12-07T10:05:44;15.40;99.90
74869;DHT22;63419;42.262;12.210;2022-12-07T10:08:15;15.20;99.90
74869;DHT22;63419;42.262;12.210;2022-12-07T10:10:46;14.90;99.90
74869;DHT22;63419;42.262;12.210;2022-12-07T10:18:52;16.00;99.90
74869;DHT22;63419;42.262;12.210;2022-12-07T10:21:24;16.00;99.90
74869;DHT22;63419;42.262;12.210;2022-12-07T10:24:05;16.10;99.90
74869;DHT22;63419;42.262;12.210;2022-12-07T10:26:50;16.00;99.90
74869;DHT22;63419;42.262;12.210;2022-12-07T10:29:23;16.20;99.90
74869;DHT22;63419;42.262;12.210;2022-12-07T10:32:41;15.90;99.90
74869;DHT22;63419;42.262;12.210;2022-12-07T10:35:30;16.40;99.90
74869;DHT22;63419;42.262;12.210;2022-12-07T10:38:00;16.60;99.90
74869;DHT22;63419;42.262;12.210;2022-12-07T10:58:44;16.00;99.90
74869;DHT22;63419;42.262;12.210;2022-12-07T11:01:33;17.90;99.90
74869;DHT22;63419;42.262;12.210;2022-12-07T11:10:26;17.50;99.90
74869;DHT22;63419;42.262;12.210;2022-12-07T11:13:29;18.60;99.90
74869;DHT22;63419;42.262;12.210;2022-12-07T11:21:58;20.00;99.90
74869;DHT22;63419;42.262;12.210;2022-12-07T11:27:39;19.10;99.90
74869;DHT22;63419;42.262;12.210;2022-12-07T11:30:56;18.80;99.90
74869;DHT22;63419;42.262;12.210;2022-12-07T11:33:46;17.70;99.90
74869;DHT22;63419;42.262;12.210;2022-12-07T11:38:55;16.60;99.90
74869;DHT22;63419;42.262;12.210;2022-12-07T11:41:38;18.00;99.90
74869;DHT22;63419;42.262;12.210;2022-12-07T11:53:29;17.30;99.90
74869;DHT22;63419;42.262;12.210;2022-12-07T11:56:14;17.70;99.90
74869;DHT22;63419;42.262;12.210;2022-12-07T11:59:06;18.00;99.90
74869;DHT22;63419;42.262;12.210;2022-12-07T12:01:51;19.10;99.90
74869;DHT22;63419;42.262;12.210;2022-12-07T12:05:12;19.30;99.90
74869;DHT22;63419;42.262;12.210;2022-12-07T12:07:44;17.70;99.90
74869;DHT22;63419;42.262;12.210;2022-12-07T12:17:53;18.60;99.90
74869;DHT22;63419;42.262;12.210;2022-12-07T12:20:38;18.30;99.90
74869;DHT22;63419;42.262;12.210;2022-12-07T12:23:23;19.20;99.90
74869;DHT22;63419;42.262;12.210;2022-12-07T12:26:12;20.50;99.90
74869;DHT22;63419;42.262;12.210;2022-12-07T12:28:54;20.10;99.90
74869;DHT22;63419;42.262;12.210;2022-12-07T12:31:48;18.90;99.90
74869;DHT22;63419;42.262;12.210;2022-12-07T12:35:03;19.60;99.90
74869;DHT22;63419;42.262;12.210;2022-12-07T12:38:32;17.60;99.90
74869;DHT22;63419;42.262;12.210;2022-12-07T12:41:01;16.90;99.90
74869;DHT22;63419;42.262;12.210;2022-12-07T12:43:50;16.90;99.90
74869;DHT22;63419;42.262;12.210;2022-12-07T12:51:50;15.70;99.90
74869;DHT22;63419;42.262;12.210;2022-12-07T12:54:24;16.90;99.90
74869;DHT22;63419;42.262;12.210;2022-12-07T13:05:02;18.80;99.90
74869;DHT22;63419;42.262;12.210;2022-12-07T13:15:49;19.00;99.90
74869;DHT22;63419;42.262;12.210;2022-12-07T13:29:20;19.90;99.90
74869;DHT22;63419;42.262;12.210;2022-12-07T13:31:53;19.60;99.90
74869;DHT22;63419;42.262;12.210;2022-12-07T13:37:30;19.70;99.90
74869;DHT22;63419;42.262;12.210;2022-12-07T13:40:21;19.40;99.90
74869;DHT22;63419;42.262;12.210;2022-12-07T13:43:01;18.80;99.90
74869;DHT22;63419;42.262;12.210;2022-12-07T13:45:32;18.10;99.90
74869;DHT22;63419;42.262;12.210;2022-12-07T13:48:19;17.90;99.90
74869;DHT22;63419;42.262;12.210;2022-12-07T13:50:55;17.10;99.90
74869;DHT22;63419;42.262;12.210;2022-12-07T13:53:24;16.70;99.90
74869;DHT22;63419;42.262;12.210;2022-12-07T13:55:58;17.10;99.90
74869;DHT22;63419;42.262;12.210;2022-12-07T13:58:30;17.40;99.90
74869;DHT22;63419;42.262;12.210;2022-12-07T14:01:00;15.60;99.90
74869;DHT22;63419;42.262;12.210;2022-12-07T14:03:33;15.90;99.90
74869;DHT22;63419;42.262;12.210;2022-12-07T14:06:23;16.00;99.90
74869;DHT22;63419;42.262;12.210;2022-12-07T14:11:50;16.40;99.90
74869;DHT22;63419;42.262;12.210;2022-12-07T14:14:37;16.30;99.90
74869;DHT22;63419;42.262;12.210;2022-12-07T14:17:19;17.40;99.90
74869;DHT22;63419;42.262;12.210;2022-12-07T14:19:58;15.10;99.90
74869;DHT22;63419;42.262;12.210;2022-12-07T14:22:34;15.00;99.90
74869;DHT22;63419;42.262;12.210;2022-12-07T14:27:54;14.60;99.90
74869;DHT22;63419;42.262;12.210;2022-12-07T14:30:30;14.70;99.90
74869;DHT22;63419;42.262;12.210;2022-12-07T14:33:01;14.70;99.90
74869;DHT22;63419;42.262;12.210;2022-12-07T14:35:31;15.00;99.90
74869;DHT22;63419;42.262;12.210;2022-12-07T14:37:59;15.30;99.90
74869;DHT22;63419;42.262;12.210;2022-12-07T14:40:28;15.80;99.90
74869;DHT22;63419;42.262;12.210;2022-12-07T14:43:10;15.40;99.90
74869;DHT22;63419;42.262;12.210;2022-12-07T14:45:41;15.00;99.90
74869;DHT22;63419;42.262;12.210;2022-12-07T14:48:13;14.80;99.90
74869;DHT22;63419;42.262;12.210;2022-12-07T14:51:02;14.60;99.90
74869;DHT22;63419;42.262;12.210;2022-12-07T14:53:52;14.40;99.90
74869;DHT22;63419;42.262;12.210;2022-12-07T14:56:23;14.30;99.90
74869;DHT22;63419;42.262;12.210;2022-12-07T14:58:51;14.20;99.90
74869;DHT22;63419;42.262;12.210;2022-12-07T15:01:18;14.10;99.90
74869;DHT22;63419;42.262;12.210;2022-12-07T15:03:46;14.10;99.90
74869;DHT22;63419;42.262;12.210;2022-12-07T15:06:14;13.80;99.90
74869;DHT22;63419;42.262;12.210;2022-12-07T15:08:44;14.00;99.90
74869;DHT22;63419;42.262;12.210;2022-12-07T15:11:16;14.00;99.90
74869;DHT22;63419;42.262;12.210;2022-12-07T15:13:44;14.30;99.90
74869;DHT22;63419;42.262;12.210;2022-12-07T15:16:30;14.60;99.90
74869;DHT22;63419;42.262;12.210;2022-12-07T15:19:20;14.60;99.90
74869;DHT22;63419;42.262;12.210;2022-12-07T15:21:56;14.60;99.90
74869;DHT22;63419;42.262;12.210;2022-12-07T15:24:23;14.70;99.90
74869;DHT22;63419;42.262;12.210;2022-12-07T15:26:51;14.60;99.90
74869;DHT22;63419;42.262;12.210;2022-12-07T15:29:19;14.60;99.90
74869;DHT22;63419;42.262;12.210;2022-12-07T15:31:52;14.30;99.90
74869;DHT22;63419;42.262;12.210;2022-12-07T15:34:24;14.20;99.90
74869;DHT22;63419;42.262;12.210;2022-12-07T15:36:53;14.00;99.90
74869;DHT22;63419;42.262;12.210;2022-12-07T15:39:21;14.00;99.90
74869;DHT22;63419;42.262;12.210;2022-12-07T15:41:49;13.80;99.90
74869;DHT22;63419;42.262;12.210;2022-12-07T15:44:16;13.60;99.90
74869;DHT22;63419;42.262;12.210;2022-12-07T15:47:04;13.30;99.90
74869;DHT22;63419;42.262;12.210;2022-12-07T15:49:32;13.20;99.90
74869;DHT22;63419;42.262;12.210;2022-12-07T15:52:00;13.20;99.90
74869;DHT22;63419;42.262;12.210;2022-12-07T15:54:28;13.20;99.90
74869;DHT22;63419;42.262;12.210;2022-12-07T15:56:56;13.10;99.90
74869;DHT22;63419;42.262;12.210;2022-12-07T15:59:25;13.10;99.90
74869;DHT22;63419;42.262;12.210;2022-12-07T16:01:53;13.10;99.90
74869;DHT22;63419;42.262;12.210;2022-12-07T16:04:23;13.00;99.90
74869;DHT22;63419;42.262;12.210;2022-12-07T16:06:51;12.80;99.90
74869;DHT22;63419;42.262;12.210;2022-12-07T16:09:18;12.70;99.90
74869;DHT22;63419;42.262;12.210;2022-12-07T16:11:47;12.60;99.90
74869;DHT22;63419;42.262;12.210;2022-12-07T16:14:21;12.50;99.90
74869;DHT22;63419;42.262;12.210;2022-12-07T16:16:53;12.50;99.90
74869;DHT22;63419;42.262;12.210;2022-12-07T16:19:23;12.60;99.90
74869;DHT22;63419;42.262;12.210;2022-12-07T16:21:52;12.70;99.90
74869;DHT22;63419;42.262;12.210;2022-12-07T16:24:21;12.80;99.90
74869;DHT22;63419;42.262;12.210;2022-12-07T16:26:51;12.80;99.90
74869;DHT22;63419;42.262;12.210;2022-12-07T16:29:21;12.80;99.90
74869;DHT22;63419;42.262;12.210;2022-12-07T16:31:54;12.80;99.90
74869;DHT22;63419;42.262;12.210;2022-12-07T16:34:23;12.80;99.90
74869;DHT22;63419;42.262;12.210;2022-12-07T16:36:55;12.80;99.90
74869;DHT22;63419;42.262;12.210;2022-12-07T16:39:33;13.00;99.90
74869;DHT22;63419;42.262;12.210;2022-12-07T16:42:01;12.90;99.90
74869;DHT22;63419;42.262;12.210;2022-12-07T16:44:30;13.00;99.90
74869;DHT22;63419;42.262;12.210;2022-12-07T16:46:58;13.00;99.90
74869;DHT22;63419;42.262;12.210;2022-12-07T16:49:27;12.80;99.90
74869;DHT22;63419;42.262;12.210;2022-12-07T16:51:54;12.60;99.90
74869;DHT22;63419;42.262;12.210;2022-12-07T16:54:41;12.40;99.90
74869;DHT22;63419;42.262;12.210;2022-12-07T16:57:08;12.40;99.90
74869;DHT22;63419;42.262;12.210;2022-12-07T16:59:36;12.30;99.90
74869;DHT22;63419;42.262;12.210;2022-12-07T17:02:05;12.20;99.90
74869;DHT22;63419;42.262;12.210;2022-12-07T17:04:38;12.20;99.90
74869;DHT22;63419;42.262;12.210;2022-12-07T17:07:06;12.20;99.90
74869;DHT22;63419;42.262;12.210;2022-12-07T17:09:36;12.20;99.90
74869;DHT22;63419;42.262;12.210;2022-12-07T17:12:06;12.20;99.90
74869;DHT22;63419;42.262;12.210;2022-12-07T17:14:35;12.30;99.90
74869;DHT22;63419;42.262;12.210;2022-12-07T17:17:23;12.40;99.90
74869;DHT22;63419;42.262;12.210;2022-12-07T17:19:52;12.50;99.90
74869;DHT22;63419;42.262;12.210;2022-12-07T17:22:21;12.50;99.90
74869;DHT22;63419;42.262;12.210;2022-12-07T17:24:50;12.40;99.90
74869;DHT22;63419;42.262;12.210;2022-12-07T17:27:18;12.40;99.90
74869;DHT22;63419;42.262;12.210;2022-12-07T17:29:45;12.40;99.90
74869;DHT22;63419;42.262;12.210;2022-12-07T17:32:13;12.30;99.90
74869;DHT22;63419;42.262;12.210;2022-12-07T17:34:42;12.20;99.90
74869;DHT22;63419;42.262;12.210;2022-12-07T17:37:11;12.10;99.90
74869;DHT22;63419;42.262;12.210;2022-12-07T17:39:39;12.10;99.90
74869;DHT22;63419;42.262;12.210;2022-12-07T17:42:09;12.20;99.90
74869;DHT22;63419;42.262;12.210;2022-12-07T17:44:56;12.30;99.90
74869;DHT22;63419;42.262;12.210;2022-12-07T17:47:23;12.40;99.90
74869;DHT22;63419;42.262;12.210;2022-12-07T17:49:51;12.50;99.90
74869;DHT22;63419;42.262;12.210;2022-12-07T17:52:21;12.70;99.90
74869;DHT22;63419;42.262;12.210;2022-12-07T17:55:07;12.70;99.90
74869;DHT22;63419;42.262;12.210;2022-12-07T17:57:36;12.60;99.90
74869;DHT22;63419;42.262;12.210;2022-12-07T18:00:07;12.70;99.90
74869;DHT22;63419;42.262;12.210;2022-12-07T18:02:38;12.70;99.90
74869;DHT22;63419;42.262;12.210;2022-12-07T18:05:07;12.60;99.90
74869;DHT22;63419;42.262;12.210;2022-12-07T18:07:36;12.50;99.90
74869;DHT22;63419;42.262;12.210;2022-12-07T18:10:27;12.50;99.90
74869;DHT22;63419;42.262;12.210;2022-12-07T18:12:56;12.60;99.90
74869;DHT22;63419;42.262;12.210;2022-12-07T18:15:44;12.40;99.90
74869;DHT22;63419;42.262;12.210;2022-12-07T18:18:12;11.90;99.90
74869;DHT22;63419;42.262;12.210;2022-12-07T18:20:42;12.00;99.90
74869;DHT22;63419;42.262;12.210;2022-12-07T18:23:11;12.00;99.90
74869;DHT22;63419;42.262;12.210;2022-12-07T18:25:47;12.00;99.90